Time;durP1;ratioP1;P1;durP2;ratioP2;P2;SDS_P1;SDS_P2;PMS_P1;PMS_P2;Temp;Humidity;BMP_temperature;BMP_pressure;BME280_temperature;BME280_humidity;BME280_pressure;Samples;Min_cycle;Max_cycle;Signal;HPM_P1;HPM_P2
2021/03/05 00:00:00;;;;;;;20.50;2.73;;;5.90;99.90;;;;;;4008206;29;20321;-94
2021/03/05 00:02:03;;;;;;;16.77;2.17;;;5.90;99.90;;;;;;4011210;29;20172;-94
2021/03/05 00:04:05;;;;;;;23.10;2.90;;;5.70;99.90;;;;;;4041803;29;20200;-93
2021/03/05 00:06:07;;;;;;;17.60;2.80;;;5.80;99.90;;;;;;4024019;29;20202;-93
2021/03/05 00:08:09;;;;;;;22.53;2.97;;;6.00;99.90;;;;;;4042727;29;20238;-94
2021/03/05 00:10:15;;;;;;;18.43;2.60;;;6.30;99.90;;;;;;4041561;29;20214;-94
2021/03/05 00:12:16;;;;;;;17.53;2.83;;;6.40;99.90;;;;;;4026153;29;20738;-92
2021/03/05 00:14:19;;;;;;;18.70;2.47;;;6.10;99.90;;;;;;4023556;29;20186;-93
2021/03/05 00:16:20;;;;;;;17.60;3.10;;;5.80;99.90;;;;;;4008167;29;20632;-94
2021/03/05 00:18:21;;;;;;;16.83;2.30;;;5.40;99.90;;;;;;4009310;29;20179;-92
2021/03/05 00:20:26;;;;;;;15.67;2.53;;;5.30;99.90;;;;;;4026376;29;20694;-93
2021/03/05 00:22:28;;;;;;;19.70;2.53;;;5.40;99.90;;;;;;4009561;29;20202;-92
2021/03/05 00:24:28;;;;;;;22.50;2.70;;;5.20;99.90;;;;;;4024594;29;20196;-93
2021/03/05 00:26:29;;;;;;;21.53;2.50;;;5.10;99.90;;;;;;4010084;29;20185;-95
2021/03/05 00:28:30;;;;;;;20.53;2.40;;;5.00;99.90;;;;;;4026097;29;20194;-95
2021/03/05 00:30:33;;;;;;;21.47;2.57;;;5.20;99.90;;;;;;4010169;29;20214;-93
2021/03/05 00:32:34;;;;;;;15.33;2.53;;;5.30;99.90;;;;;;4026616;29;20185;-93
2021/03/05 00:34:36;;;;;;;15.70;2.73;;;5.50;99.90;;;;;;4025416;29;20202;-93
2021/03/05 00:36:37;;;;;;;16.03;3.40;;;5.40;99.90;;;;;;4026411;29;20687;-93
2021/03/05 00:38:38;;;;;;;18.13;2.57;;;5.50;99.90;;;;;;4027101;29;20219;-93
2021/03/05 00:40:39;;;;;;;16.10;2.87;;;5.60;99.90;;;;;;4040105;29;20296;-92
2021/03/05 00:42:41;;;;;;;20.60;2.97;;;5.80;99.90;;;;;;4027027;29;20240;-92
2021/03/05 00:44:42;;;;;;;18.50;2.90;;;5.80;99.90;;;;;;4048033;29;20257;-91
2021/03/05 00:46:43;;;;;;;21.57;3.13;;;5.90;99.90;;;;;;4024163;29;20540;-92
2021/03/05 00:48:44;;;;;;;16.73;3.13;;;5.90;99.90;;;;;;4042468;29;20240;-93
2021/03/05 00:50:46;;;;;;;22.60;2.97;;;5.70;99.90;;;;;;4024039;29;20640;-95
2021/03/05 00:52:49;;;;;;;15.00;3.00;;;5.30;99.90;;;;;;4028289;29;20182;-94
2021/03/05 00:54:51;;;;;;;22.73;2.83;;;5.20;99.90;;;;;;4041464;29;20189;-93
2021/03/05 00:56:51;;;;;;;21.33;2.90;;;5.50;99.90;;;;;;4040057;29;20200;-94
2021/03/05 00:58:52;;;;;;;22.87;3.07;;;5.70;99.90;;;;;;4038809;29;20217;-93
2021/03/05 01:01:00;;;;;;;20.37;2.87;;;5.70;99.90;;;;;;4039643;29;20196;-93
2021/03/05 01:03:01;;;;;;;22.43;3.10;;;5.50;99.90;;;;;;4028077;29;20267;-94
2021/03/05 01:05:03;;;;;;;19.80;3.00;;;5.40;99.90;;;;;;4025534;29;20185;-93
2021/03/05 01:07:04;;;;;;;27.13;3.30;;;5.50;99.90;;;;;;4040440;29;20186;-92
2021/03/05 01:09:07;;;;;;;22.00;3.13;;;5.40;99.90;;;;;;4023934;29;20178;-93
2021/03/05 01:11:08;;;;;;;16.30;2.70;;;5.10;99.90;;;;;;4024328;29;20238;-94
2021/03/05 01:13:09;;;;;;;19.10;2.67;;;5.50;99.90;;;;;;4038495;29;20184;-91
2021/03/05 01:17:12;;;;;;;22.83;3.67;;;5.60;99.90;;;;;;4037749;29;20254;-92
2021/03/05 01:19:14;;;;;;;23.80;3.03;;;5.80;99.90;;;;;;4025217;29;20222;-93
2021/03/05 01:21:15;;;;;;;18.60;3.10;;;5.80;99.90;;;;;;4026164;29;20205;-91
2021/03/05 01:23:18;;;;;;;23.43;3.33;;;5.90;99.90;;;;;;4011211;29;20175;-93
2021/03/05 01:25:22;;;;;;;14.77;2.93;;;5.90;99.90;;;;;;4325419;23;20277;-93
2021/03/05 01:27:23;;;;;;;19.13;3.83;;;6.00;99.90;;;;;;4038189;29;20244;-93
2021/03/05 01:29:24;;;;;;;25.43;3.77;;;6.00;99.90;;;;;;4059627;29;20211;-93
2021/03/05 01:31:27;;;;;;;19.87;3.43;;;5.80;99.90;;;;;;4040280;29;20638;-93
2021/03/05 01:33:27;;;;;;;16.97;4.17;;;5.80;99.90;;;;;;4041784;29;20193;-92
2021/03/05 01:35:29;;;;;;;18.17;3.70;;;5.90;99.90;;;;;;4040492;29;20563;-92
2021/03/05 01:37:30;;;;;;;19.20;4.07;;;5.80;99.90;;;;;;4053947;29;20185;-93
2021/03/05 01:39:33;;;;;;;23.40;3.80;;;5.50;99.90;;;;;;4054274;29;20205;-94
2021/03/05 01:41:35;;;;;;;20.27;4.07;;;5.40;99.90;;;;;;4056386;29;20209;-93
2021/03/05 01:43:38;;;;;;;18.17;3.93;;;5.20;99.90;;;;;;4039517;29;20185;-92
2021/03/05 01:45:40;;;;;;;16.20;3.80;;;5.10;99.90;;;;;;4008397;29;20195;-94
2021/03/05 01:47:44;;;;;;;26.20;3.63;;;5.20;99.90;;;;;;4024047;29;20289;-94
2021/03/05 01:49:48;;;;;;;20.00;3.80;;;5.30;99.90;;;;;;4056543;29;20208;-92
2021/03/05 01:51:49;;;;;;;17.17;3.27;;;5.40;99.90;;;;;;4038361;29;20658;-92
2021/03/05 01:53:50;;;;;;;18.73;3.40;;;5.30;99.90;;;;;;4041556;29;20196;-93
2021/03/05 01:55:51;;;;;;;21.13;3.70;;;5.40;99.90;;;;;;4053123;29;20307;-93
2021/03/05 01:57:56;;;;;;;23.20;4.00;;;5.40;99.90;;;;;;4040193;29;20244;-91
2021/03/05 01:59:56;;;;;;;20.90;3.80;;;5.40;99.90;;;;;;4057789;29;20212;-93
2021/03/05 02:02:08;;;;;;;20.93;3.80;;;5.30;99.90;;;;;;4053117;29;20667;-91
2021/03/05 02:04:10;;;;;;;20.10;3.77;;;5.30;99.90;;;;;;4023499;29;20673;-92
2021/03/05 02:06:11;;;;;;;24.40;4.07;;;5.20;99.90;;;;;;4022635;29;20347;-91
2021/03/05 02:08:13;;;;;;;32.17;4.53;;;5.10;99.90;;;;;;4041492;29;20177;-92
2021/03/05 02:10:15;;;;;;;17.03;3.60;;;5.10;99.90;;;;;;4024152;29;20233;-94
2021/03/05 02:12:16;;;;;;;23.47;4.37;;;5.10;99.90;;;;;;4044374;29;20190;-93
2021/03/05 02:14:17;;;;;;;19.17;4.10;;;5.20;99.90;;;;;;4027248;29;20591;-93
2021/03/05 02:16:51;;;;;;;18.77;3.93;;;5.20;99.90;;;;;;4057621;29;20212;-93
2021/03/05 02:19:23;;;;;;;16.67;4.30;;;5.30;99.90;;;;;;4040851;29;20192;-92
2021/03/05 02:21:47;;;;;;;18.63;4.70;;;5.40;99.90;;;;;;4056197;29;20272;-93
2021/03/05 02:24:15;;;;;;;22.27;5.73;;;5.30;99.90;;;;;;4045488;29;20188;-93
2021/03/05 02:26:54;;;;;;;19.37;5.30;;;5.30;99.90;;;;;;4026495;29;20233;-92
2021/03/05 02:29:23;;;;;;;20.20;5.97;;;5.40;99.90;;;;;;4058001;29;20185;-92
2021/03/05 02:31:43;;;;;;;22.73;6.07;;;5.50;99.90;;;;;;4057626;29;20203;-93
2021/03/05 02:34:06;;;;;;;17.77;6.30;;;5.60;99.90;;;;;;4056126;29;20195;-93
2021/03/05 02:36:10;;;;;;;18.73;5.97;;;5.60;99.90;;;;;;4041690;29;20221;-91
2021/03/05 02:38:19;;;;;;;16.43;5.70;;;5.70;99.90;;;;;;4040941;29;20641;-92
2021/03/05 02:40:30;;;;;;;29.73;7.03;;;5.80;99.90;;;;;;4041011;29;20216;-92
2021/03/05 02:42:38;;;;;;;17.43;6.50;;;5.90;99.90;;;;;;4042857;29;20193;-92
2021/03/05 02:44:45;;;;;;;20.80;6.80;;;5.80;99.90;;;;;;4056216;29;20188;-92
2021/03/05 02:46:46;;;;;;;25.30;6.10;;;5.70;99.90;;;;;;4045450;29;20689;-92
2021/03/05 02:48:47;;;;;;;28.60;6.93;;;5.70;99.90;;;;;;4040288;29;20268;-92
2021/03/05 02:50:52;;;;;;;21.33;6.27;;;5.40;99.90;;;;;;4040138;29;20296;-93
2021/03/05 02:52:56;;;;;;;24.30;7.00;;;5.60;99.90;;;;;;4058759;29;20592;-92
2021/03/05 02:55:04;;;;;;;22.03;6.73;;;6.00;99.90;;;;;;4040171;29;20189;-92
2021/03/05 02:57:15;;;;;;;23.97;6.57;;;6.30;99.90;;;;;;4041098;29;20565;-93
2021/03/05 02:59:17;;;;;;;20.83;6.37;;;6.50;99.90;;;;;;4024582;29;20206;-92
2021/03/05 03:01:21;;;;;;;21.70;6.73;;;6.50;99.90;;;;;;4027025;29;20197;-92
2021/03/05 03:03:23;;;;;;;26.30;6.37;;;6.40;99.90;;;;;;4072261;29;20212;-91
2021/03/05 03:05:26;;;;;;;24.47;6.63;;;6.30;99.90;;;;;;4057076;29;20193;-92
2021/03/05 03:07:29;;;;;;;17.07;6.57;;;6.10;99.90;;;;;;4043378;29;20238;-92
2021/03/05 03:09:32;;;;;;;25.23;5.70;;;6.10;99.90;;;;;;4040545;29;20232;-93
2021/03/05 03:11:34;;;;;;;20.00;6.33;;;6.00;99.90;;;;;;4041965;29;20192;-92
2021/03/05 03:13:37;;;;;;;15.07;5.27;;;6.00;99.90;;;;;;4040469;29;20193;-91
2021/03/05 03:15:39;;;;;;;18.77;5.87;;;5.90;99.90;;;;;;4041088;29;20247;-93
2021/03/05 03:17:45;;;;;;;20.17;5.87;;;6.00;99.90;;;;;;4063488;23;20240;-95
2021/03/05 03:19:49;;;;;;;19.40;5.47;;;5.80;99.90;;;;;;4040446;29;20213;-95
2021/03/05 03:21:51;;;;;;;21.53;5.67;;;5.40;99.90;;;;;;4070237;29;20192;-93
2021/03/05 03:23:53;;;;;;;25.30;5.97;;;5.20;99.90;;;;;;4041388;29;20226;-94
2021/03/05 03:25:54;;;;;;;16.13;5.40;;;5.00;99.90;;;;;;4055158;29;20188;-93
2021/03/05 03:27:56;;;;;;;16.47;5.07;;;5.10;99.90;;;;;;4041241;29;20310;-92
2021/03/05 03:29:57;;;;;;;15.03;5.10;;;5.80;99.90;;;;;;4055962;29;20209;-93
2021/03/05 03:31:58;;;;;;;22.03;4.87;;;6.10;99.90;;;;;;4056211;29;20180;-93
2021/03/05 03:34:00;;;;;;;21.90;5.40;;;5.90;99.90;;;;;;4055802;29;20181;-93
2021/03/05 03:36:04;;;;;;;19.13;5.17;;;5.60;99.90;;;;;;4040859;29;20625;-93
2021/03/05 03:38:08;;;;;;;19.13;4.87;;;5.70;99.90;;;;;;4041032;29;20189;-92
2021/03/05 03:40:11;;;;;;;15.77;4.67;;;5.70;99.90;;;;;;4039937;29;20248;-93
2021/03/05 03:42:12;;;;;;;19.70;5.57;;;5.90;99.90;;;;;;4039489;29;20197;-94
2021/03/05 03:44:13;;;;;;;17.17;4.43;;;5.80;99.90;;;;;;4040624;29;20193;-93
2021/03/05 03:46:17;;;;;;;13.97;4.87;;;5.60;99.90;;;;;;4055266;29;20665;-92
2021/03/05 03:48:18;;;;;;;16.70;4.90;;;5.70;99.90;;;;;;4040496;29;20182;-93
2021/03/05 03:50:28;;;;;;;17.50;5.00;;;6.00;99.90;;;;;;4055636;29;20290;-96
2021/03/05 03:52:48;;;;;;;16.97;5.20;;;6.10;99.90;;;;;;4039753;29;20197;-92
2021/03/05 03:55:07;;;;;;;16.17;5.00;;;5.90;99.90;;;;;;4057424;29;20266;-92
2021/03/05 03:57:11;;;;;;;16.57;5.47;;;5.80;99.90;;;;;;4056232;29;20305;-93
2021/03/05 03:59:15;;;;;;;21.13;6.27;;;5.70;99.90;;;;;;4054904;29;20243;-93
2021/03/05 04:01:19;;;;;;;24.53;6.40;;;5.40;99.90;;;;;;4042294;29;20767;-94
2021/03/05 04:03:25;;;;;;;23.33;5.73;;;5.30;99.90;;;;;;4026614;29;20221;-93
2021/03/05 04:05:27;;;;;;;20.63;6.77;;;5.10;99.90;;;;;;4055852;29;20185;-93
2021/03/05 04:07:30;;;;;;;20.67;5.67;;;4.90;99.90;;;;;;4039489;29;20273;-92
2021/03/05 04:09:31;;;;;;;16.70;5.57;;;4.70;99.90;;;;;;4055934;29;20379;-94
2021/03/05 04:11:34;;;;;;;26.13;6.77;;;4.60;99.90;;;;;;4039591;29;20182;-93
2021/03/05 04:13:42;;;;;;;17.80;6.10;;;4.60;99.90;;;;;;4041567;29;20645;-93
2021/03/05 04:16:00;;;;;;;19.27;7.70;;;4.60;99.90;;;;;;4060565;29;20261;-94
2021/03/05 04:18:01;;;;;;;23.20;8.00;;;4.40;99.90;;;;;;4044121;29;20241;-94
2021/03/05 04:20:07;;;;;;;26.23;8.43;;;4.30;99.90;;;;;;4057006;29;20215;-93
2021/03/05 04:22:08;;;;;;;18.67;8.53;;;4.20;99.90;;;;;;4054387;29;20228;-93
2021/03/05 04:24:09;;;;;;;18.40;7.77;;;4.20;99.90;;;;;;4040376;29;20245;-92
2021/03/05 04:26:10;;;;;;;22.10;8.43;;;4.20;99.90;;;;;;4041852;29;20260;-94
2021/03/05 04:28:12;;;;;;;24.30;9.40;;;4.20;99.90;;;;;;4055542;29;20192;-93
2021/03/05 04:30:13;;;;;;;22.90;9.13;;;4.10;99.90;;;;;;4038555;29;20206;-93
2021/03/05 04:32:14;;;;;;;19.30;8.53;;;4.20;99.90;;;;;;4054748;29;20189;-93
2021/03/05 04:34:15;;;;;;;24.67;9.00;;;4.20;99.90;;;;;;4038509;29;20185;-92
2021/03/05 04:36:16;;;;;;;18.93;8.63;;;4.10;99.90;;;;;;4040089;29;20312;-94
2021/03/05 04:38:21;;;;;;;23.17;9.13;;;4.10;99.90;;;;;;4056062;29;20185;-92
2021/03/05 04:40:22;;;;;;;24.33;7.90;;;4.10;99.90;;;;;;4055887;29;20212;-93
2021/03/05 04:42:22;;;;;;;30.07;9.37;;;4.00;99.90;;;;;;4040073;29;20192;-93
2021/03/05 04:44:23;;;;;;;26.33;9.37;;;4.00;99.90;;;;;;4058895;29;20189;-92
2021/03/05 04:46:26;;;;;;;18.23;9.07;;;4.00;99.90;;;;;;4056224;29;20205;-92
2021/03/05 04:48:29;;;;;;;25.40;8.93;;;4.10;99.90;;;;;;4040152;29;20194;-95
2021/03/05 04:50:30;;;;;;;24.90;9.20;;;4.10;99.90;;;;;;4053801;29;20205;-92
2021/03/05 04:52:31;;;;;;;15.37;8.63;;;4.10;99.90;;;;;;4039501;29;20732;-92
2021/03/05 04:54:35;;;;;;;21.73;9.67;;;4.20;99.90;;;;;;4038669;29;20190;-93
2021/03/05 04:56:36;;;;;;;23.23;8.93;;;4.20;99.90;;;;;;4039830;29;20213;-92
2021/03/05 04:58:37;;;;;;;19.30;8.70;;;4.20;99.90;;;;;;4071041;29;20181;-93
2021/03/05 05:00:38;;;;;;;19.60;9.47;;;4.10;99.90;;;;;;4041627;29;20205;-93
2021/03/05 05:02:38;;;;;;;29.53;11.13;;;4.00;99.90;;;;;;4053679;29;20185;-93
2021/03/05 05:04:39;;;;;;;28.80;10.57;;;3.90;99.90;;;;;;4038338;29;20200;-92
2021/03/05 05:06:40;;;;;;;24.53;10.87;;;3.90;99.90;;;;;;4040585;29;20218;-93
2021/03/05 05:08:41;;;;;;;29.23;10.83;;;3.90;99.90;;;;;;4041201;29;20192;-93
2021/03/05 05:10:42;;;;;;;25.13;9.80;;;3.80;99.90;;;;;;4071797;29;20200;-92
2021/03/05 05:12:43;;;;;;;22.53;11.13;;;3.80;99.90;;;;;;4039854;29;20610;-94
2021/03/05 05:14:45;;;;;;;19.47;10.10;;;3.80;99.90;;;;;;4054144;29;20193;-93
2021/03/05 05:16:45;;;;;;;22.03;11.33;;;3.80;99.90;;;;;;4041757;29;20293;-95
2021/03/05 05:18:50;;;;;;;25.43;11.17;;;3.80;99.90;;;;;;4071976;29;20177;-91
2021/03/05 05:20:51;;;;;;;24.40;12.87;;;3.80;99.90;;;;;;4054047;29;20197;-93
2021/03/05 05:22:52;;;;;;;21.90;12.23;;;3.80;99.90;;;;;;4037807;29;20634;-93
2021/03/05 05:24:53;;;;;;;20.47;11.73;;;3.80;99.90;;;;;;4054677;29;20196;-92
2021/03/05 05:26:57;;;;;;;27.00;11.23;;;3.70;99.90;;;;;;4025108;29;20195;-94
2021/03/05 05:28:58;;;;;;;19.43;10.13;;;3.70;99.90;;;;;;4054435;29;20256;-93
2021/03/05 05:31:01;;;;;;;19.13;11.87;;;3.70;99.90;;;;;;4056691;29;20238;-94
2021/03/05 05:33:06;;;;;;;20.37;11.63;;;3.70;99.90;;;;;;4057407;29;20171;-93
2021/03/05 05:35:10;;;;;;;25.70;10.97;;;3.60;99.90;;;;;;4039172;29;20190;-94
2021/03/05 05:37:14;;;;;;;24.40;12.17;;;3.60;99.90;;;;;;4073231;29;20659;-94
2021/03/05 05:39:15;;;;;;;27.73;11.90;;;3.60;99.90;;;;;;4038866;29;20201;-93
2021/03/05 05:41:16;;;;;;;20.00;11.77;;;3.60;99.90;;;;;;4043829;29;20243;-93
2021/03/05 05:43:20;;;;;;;25.27;11.63;;;3.70;99.90;;;;;;4039939;29;20177;-93
2021/03/05 05:45:22;;;;;;;25.33;11.47;;;3.60;99.90;;;;;;4039169;29;20582;-92
2021/03/05 05:47:24;;;;;;;20.10;11.90;;;3.60;99.90;;;;;;4055062;29;20249;-94
2021/03/05 05:49:29;;;;;;;16.97;10.70;;;3.60;99.90;;;;;;4041667;29;20270;-93
2021/03/05 05:51:34;;;;;;;17.30;10.40;;;3.50;99.90;;;;;;4023594;29;20599;-92
2021/03/05 05:53:37;;;;;;;17.27;9.80;;;3.50;99.90;;;;;;4040113;29;20181;-92
2021/03/05 05:58:12;;;;;;;16.57;9.43;;;3.40;99.90;;;;;;4054324;29;20260;-94
2021/03/05 06:00:17;;;;;;;18.00;9.93;;;3.30;99.90;;;;;;4051094;29;20245;-92
2021/03/05 06:02:21;;;;;;;16.03;9.97;;;3.20;99.90;;;;;;4047426;23;20269;-94
2021/03/05 06:04:23;;;;;;;19.37;10.17;;;3.20;99.90;;;;;;4068647;29;20200;-93
2021/03/05 06:06:23;;;;;;;15.47;10.07;;;3.20;99.90;;;;;;4040333;29;20194;-92
2021/03/05 06:08:25;;;;;;;19.40;10.53;;;3.30;99.90;;;;;;4053596;29;20271;-92
2021/03/05 06:10:25;;;;;;;20.53;10.93;;;3.20;99.90;;;;;;4056895;29;20213;-92
2021/03/05 06:12:26;;;;;;;28.43;11.00;;;3.20;99.90;;;;;;4056038;29;20278;-93
2021/03/05 06:14:27;;;;;;;20.73;10.40;;;3.10;99.90;;;;;;4040266;29;20208;-92
2021/03/05 06:16:30;;;;;;;20.67;10.63;;;3.10;99.90;;;;;;4039350;29;20700;-95
2021/03/05 06:18:34;;;;;;;16.97;10.27;;;3.10;99.90;;;;;;4055199;29;20188;-94
2021/03/05 06:20:45;;;;;;;17.80;10.30;;;3.10;99.90;;;;;;4053904;29;20213;-92
2021/03/05 06:23:06;;;;;;;18.57;10.90;;;3.10;99.90;;;;;;4056148;29;20185;-94
2021/03/05 06:25:09;;;;;;;20.83;10.97;;;3.10;99.90;;;;;;4054748;29;20177;-92
2021/03/05 06:27:10;;;;;;;21.33;10.57;;;3.10;99.90;;;;;;4056490;29;20669;-92
2021/03/05 06:29:11;;;;;;;28.07;11.10;;;3.10;99.90;;;;;;4054638;29;20692;-94
2021/03/05 06:31:18;;;;;;;24.20;11.67;;;3.10;99.90;;;;;;4038324;29;20197;-92
2021/03/05 06:33:30;;;;;;;22.17;10.70;;;3.10;99.90;;;;;;4070494;29;20199;-92
2021/03/05 06:35:32;;;;;;;24.20;10.63;;;3.00;99.90;;;;;;4040331;29;20232;-92
2021/03/05 06:37:43;;;;;;;21.40;10.60;;;3.00;99.90;;;;;;4039276;29;20292;-92
2021/03/05 06:39:55;;;;;;;21.93;11.07;;;3.00;99.90;;;;;;4069546;29;20214;-91
2021/03/05 06:42:03;;;;;;;32.33;12.90;;;3.00;99.90;;;;;;4038498;29;20197;-92
2021/03/05 06:44:04;;;;;;;18.43;11.67;;;3.10;99.90;;;;;;4069326;29;20664;-92
2021/03/05 06:46:05;;;;;;;20.90;10.93;;;3.20;99.90;;;;;;4053420;29;20181;-95
2021/03/05 06:48:08;;;;;;;20.80;10.43;;;3.40;99.90;;;;;;4071973;29;20200;-91
2021/03/05 06:50:31;;;;;;;23.43;10.40;;;3.60;99.90;;;;;;4038163;29;20297;-92
2021/03/05 06:52:33;;;;;;;19.90;9.77;;;4.10;99.90;;;;;;4069060;29;20184;-94
2021/03/05 06:54:36;;;;;;;17.57;9.23;;;4.30;99.90;;;;;;4038790;29;20557;-92
2021/03/05 06:56:39;;;;;;;19.13;10.03;;;4.60;99.90;;;;;;4037890;29;20222;-91
2021/03/05 06:58:56;;;;;;;16.87;9.00;;;4.70;99.90;;;;;;4040036;29;20595;-94
2021/03/05 07:01:03;;;;;;;21.80;9.73;;;4.80;99.90;;;;;;4042014;29;20177;-92
2021/03/05 07:03:30;;;;;;;18.87;9.53;;;4.90;99.90;;;;;;4040648;29;20225;-92
2021/03/05 07:05:50;;;;;;;18.63;9.17;;;5.00;99.90;;;;;;4039256;29;20242;-94
2021/03/05 07:07:53;;;;;;;18.57;9.17;;;5.30;99.90;;;;;;4042023;29;20191;-95
2021/03/05 07:09:55;;;;;;;18.97;9.23;;;5.40;99.90;;;;;;4057069;29;20212;-94
2021/03/05 07:11:58;;;;;;;18.40;8.93;;;5.50;99.90;;;;;;4041747;29;20189;-92
2021/03/05 07:13:58;;;;;;;19.03;9.00;;;5.70;99.90;;;;;;4041769;29;20201;-93
2021/03/05 07:15:59;;;;;;;21.23;8.97;;;5.80;99.90;;;;;;4044735;29;20221;-94
2021/03/05 07:18:00;;;;;;;19.33;9.40;;;5.90;99.90;;;;;;4042881;29;20189;-95
2021/03/05 07:20:01;;;;;;;15.63;9.37;;;6.10;99.90;;;;;;4057805;29;20542;-96
2021/03/05 07:22:02;;;;;;;21.27;9.33;;;6.00;99.90;;;;;;4041203;29;20175;-92
2021/03/05 07:24:06;;;;;;;23.23;9.70;;;6.00;99.90;;;;;;4056419;29;20192;-93
2021/03/05 07:26:07;;;;;;;19.77;9.33;;;6.00;99.90;;;;;;4056118;29;20185;-92
2021/03/05 07:28:13;;;;;;;17.93;9.03;;;6.10;99.90;;;;;;4055799;29;20193;-93
2021/03/05 07:30:19;;;;;;;17.37;9.50;;;6.20;99.90;;;;;;4057031;29;20205;-92
2021/03/05 07:32:23;;;;;;;19.73;8.80;;;6.00;99.90;;;;;;4055496;29;20212;-93
2021/03/05 07:34:26;;;;;;;17.03;8.73;;;5.90;99.90;;;;;;4056513;29;20213;-94
2021/03/05 07:36:34;;;;;;;22.43;8.33;;;6.00;99.90;;;;;;4055437;29;20677;-94
2021/03/05 07:38:39;;;;;;;13.50;7.73;;;6.10;99.90;;;;;;4055703;29;20215;-93
2021/03/05 07:40:43;;;;;;;13.87;6.83;;;6.10;99.90;;;;;;4055931;29;20205;-94
2021/03/05 07:42:45;;;;;;;15.63;7.87;;;5.90;99.90;;;;;;4055394;29;20184;-94
2021/03/05 07:44:46;;;;;;;15.30;7.40;;;5.50;99.90;;;;;;4055748;29;20287;-94
2021/03/05 07:46:48;;;;;;;15.27;8.20;;;5.40;99.90;;;;;;4058425;29;20177;-92
2021/03/05 07:48:50;;;;;;;14.83;6.23;;;5.30;99.90;;;;;;4058210;29;20526;-93
2021/03/05 07:51:02;;;;;;;17.27;8.00;;;5.30;99.90;;;;;;4061203;29;20196;-93
2021/03/05 07:53:04;;;;;;;10.93;6.67;;;5.30;99.90;;;;;;4062285;29;20168;-93
2021/03/05 07:55:06;;;;;;;13.70;6.50;;;5.20;99.90;;;;;;4056001;29;20189;-92
2021/03/05 07:57:29;;;;;;;11.13;6.07;;;5.20;99.90;;;;;;4056839;29;20189;-94
2021/03/05 07:59:50;;;;;;;13.23;6.57;;;5.40;99.90;;;;;;4055380;29;20276;-93
2021/03/05 08:01:50;;;;;;;14.93;5.83;;;5.60;99.90;;;;;;4058941;29;20232;-93
2021/03/05 08:03:55;;;;;;;11.87;5.63;;;5.50;99.90;;;;;;4056300;29;20247;-93
2021/03/05 08:05:58;;;;;;;10.93;4.90;;;5.40;99.90;;;;;;4073263;29;20192;-92
2021/03/05 08:08:30;;;;;;;9.20;5.03;;;5.10;99.90;;;;;;4073127;23;20600;-93
2021/03/05 08:10:39;;;;;;;7.90;3.93;;;5.00;99.90;;;;;;4073827;29;20211;-94
2021/03/05 08:12:45;;;;;;;11.27;4.10;;;5.10;99.90;;;;;;4062273;29;20276;-94
2021/03/05 08:14:51;;;;;;;5.97;3.40;;;5.20;99.90;;;;;;4073771;29;20188;-94
2021/03/05 08:16:55;;;;;;;9.03;3.83;;;5.40;99.90;;;;;;4073669;23;20234;-93
2021/03/05 08:19:20;;;;;;;6.30;4.23;;;5.50;99.90;;;;;;4090204;29;20180;-94
2021/03/05 08:22:01;;;;;;;8.57;3.63;;;5.80;99.90;;;;;;4056034;29;20199;-94
2021/03/05 08:24:44;;;;;;;9.03;3.80;;;6.00;99.90;;;;;;4056828;29;20604;-93
2021/03/05 08:27:30;;;;;;;7.50;3.23;;;6.10;99.90;;;;;;4044821;29;20626;-93
2021/03/05 08:29:56;;;;;;;5.57;2.90;;;6.30;99.90;;;;;;4020522;29;20194;-93
2021/03/05 08:32:31;;;;;;;9.87;3.10;;;6.00;99.90;;;;;;4047282;29;20189;-94
2021/03/05 08:34:31;;;;;;;7.70;3.07;;;6.10;99.90;;;;;;4044306;29;20207;-93
2021/03/05 08:36:48;;;;;;;5.50;2.80;;;6.20;99.90;;;;;;4046292;29;20218;-93
2021/03/05 08:41:25;;;;;;;13.50;3.73;;;6.30;99.90;;;;;;4048707;29;20681;-91
2021/03/05 08:43:31;;;;;;;7.07;3.47;;;6.80;99.90;;;;;;4138431;23;20232;-93
2021/03/05 08:45:39;;;;;;;6.57;3.27;;;7.10;99.90;;;;;;4065562;29;20169;-93
2021/03/05 08:47:46;;;;;;;5.07;3.10;;;7.10;99.90;;;;;;4049418;29;20205;-94
2021/03/05 08:49:48;;;;;;;6.33;2.73;;;6.70;99.90;;;;;;4045962;29;20317;-91
2021/03/05 08:51:52;;;;;;;7.23;3.50;;;6.60;99.90;;;;;;4066932;23;20704;-94
2021/03/05 08:54:02;;;;;;;10.37;2.90;;;6.60;99.90;;;;;;4068622;23;20247;-92
2021/03/05 08:56:05;;;;;;;4.03;2.40;;;6.60;99.90;;;;;;4044273;29;20313;-90
2021/03/05 08:58:06;;;;;;;13.70;3.30;;;6.60;99.90;;;;;;4061043;29;20205;-93
2021/03/05 09:00:14;;;;;;;12.07;3.43;;;6.50;99.90;;;;;;4051696;29;20210;-93
2021/03/05 09:02:14;;;;;;;5.70;3.20;;;6.50;99.90;;;;;;4029678;29;20202;-95
2021/03/05 09:04:22;;;;;;;8.10;3.50;;;6.40;99.90;;;;;;4047412;29;20191;-95
2021/03/05 09:06:23;;;;;;;6.47;3.17;;;6.40;99.90;;;;;;4031360;29;20213;-92
2021/03/05 09:08:25;;;;;;;8.03;3.20;;;6.30;99.90;;;;;;4047885;29;20243;-94
2021/03/05 09:10:58;;;;;;;9.07;3.03;;;6.30;99.90;;;;;;4030236;29;20270;-94
2021/03/05 09:13:02;;;;;;;10.27;3.17;;;6.50;99.90;;;;;;4047956;29;20200;-91
2021/03/05 09:15:23;;;;;;;6.50;3.00;;;6.90;99.90;;;;;;4054961;23;20245;-93
2021/03/05 09:17:23;;;;;;;7.50;3.10;;;7.10;99.90;;;;;;4049086;29;20193;-91
2021/03/05 09:19:37;;;;;;;10.43;3.20;;;6.90;99.90;;;;;;4050671;23;20245;-93
2021/03/05 09:21:38;;;;;;;5.63;3.00;;;7.00;99.90;;;;;;4059559;29;20208;-94
2021/03/05 09:23:44;;;;;;;6.80;3.03;;;6.90;99.90;;;;;;4047989;29;20245;-93
2021/03/05 09:25:55;;;;;;;6.53;2.40;;;6.70;99.90;;;;;;4046412;29;20230;-94
2021/03/05 09:27:58;;;;;;;5.77;2.60;;;6.80;99.90;;;;;;4046202;29;20321;-94
2021/03/05 09:30:11;;;;;;;12.77;2.97;;;6.90;99.90;;;;;;4032789;29;20205;-93
2021/03/05 09:32:54;;;;;;;9.17;2.83;;;7.10;99.90;;;;;;4045501;29;20257;-93
2021/03/05 09:34:59;;;;;;;7.03;2.70;;;7.20;99.90;;;;;;4060739;29;20197;-93
2021/03/05 09:37:14;;;;;;;4.60;2.00;;;7.50;99.90;;;;;;4048373;29;20216;-91
2021/03/05 09:39:15;;;;;;;4.20;1.27;;;7.50;99.90;;;;;;4044044;29;20209;-93
2021/03/05 09:41:18;;;;;;;5.80;2.33;;;7.10;99.90;;;;;;4060358;29;20252;-93
2021/03/05 09:43:20;;;;;;;4.40;1.60;;;6.80;99.90;;;;;;4061569;29;20173;-94
2021/03/05 09:45:53;;;;;;;5.50;2.40;;;6.70;99.90;;;;;;4044834;29;20189;-92
2021/03/05 09:47:54;;;;;;;7.00;2.07;;;6.80;99.90;;;;;;4051079;29;20177;-92
2021/03/05 09:50:21;;;;;;;5.67;2.20;;;6.90;99.90;;;;;;4057779;23;20304;-92
2021/03/05 09:52:26;;;;;;;7.00;2.13;;;6.90;99.90;;;;;;4032806;29;20195;-91
2021/03/05 09:54:38;;;;;;;4.57;2.20;;;7.40;99.90;;;;;;4054321;23;20188;-93
2021/03/05 09:56:48;;;;;;;5.57;2.10;;;7.90;99.90;;;;;;4055253;23;20241;-93
2021/03/05 09:59:03;;;;;;;9.13;2.03;;;7.60;99.90;;;;;;4062580;29;20189;-93
2021/03/05 10:01:08;;;;;;;6.77;2.17;;;7.50;99.90;;;;;;4046544;29;20189;-95
2021/03/05 10:03:12;;;;;;;5.90;2.13;;;7.10;99.90;;;;;;4046741;29;20193;-93
2021/03/05 10:05:13;;;;;;;4.67;2.17;;;6.40;99.90;;;;;;4059352;29;20184;-92
2021/03/05 10:07:15;;;;;;;5.47;2.43;;;5.80;99.90;;;;;;4030696;29;20194;-92
2021/03/05 10:09:22;;;;;;;7.53;2.50;;;5.50;99.90;;;;;;4061971;29;20209;-92
2021/03/05 10:11:37;;;;;;;3.83;2.07;;;5.50;99.90;;;;;;4045883;29;20217;-94
2021/03/05 10:13:52;;;;;;;5.03;2.20;;;5.50;99.90;;;;;;4045447;29;20178;-94
2021/03/05 10:15:53;;;;;;;4.27;1.93;;;5.60;99.90;;;;;;4029053;29;20241;-93
2021/03/05 10:17:57;;;;;;;7.03;2.53;;;5.60;99.90;;;;;;4031005;29;20277;-94
2021/03/05 10:20:07;;;;;;;8.53;2.60;;;5.60;99.90;;;;;;4029496;29;20247;-94
2021/03/05 10:22:09;;;;;;;10.63;2.47;;;5.40;99.90;;;;;;4026645;29;20217;-93
2021/03/05 10:24:16;;;;;;;5.27;2.20;;;5.50;99.90;;;;;;4028673;29;20337;-94
2021/03/05 10:26:30;;;;;;;7.30;2.70;;;5.80;99.90;;;;;;4029282;29;20289;-93
2021/03/05 10:28:31;;;;;;;7.00;2.00;;;5.80;99.90;;;;;;4044240;29;20185;-95
2021/03/05 10:30:32;;;;;;;5.40;1.93;;;5.90;99.90;;;;;;4065917;23;20244;-93
2021/03/05 10:32:42;;;;;;;4.50;2.07;;;5.90;99.90;;;;;;4029261;29;20187;-94
2021/03/05 10:34:47;;;;;;;6.07;2.27;;;5.70;99.90;;;;;;4030558;29;20190;-94
2021/03/05 10:36:49;;;;;;;5.20;2.60;;;5.60;99.90;;;;;;4045251;29;20225;-92
2021/03/05 10:38:50;;;;;;;4.50;2.10;;;5.40;99.90;;;;;;4046137;29;20178;-91
2021/03/05 10:40:53;;;;;;;4.87;1.90;;;5.40;99.90;;;;;;4036948;29;20179;-93
2021/03/05 10:42:53;;;;;;;6.47;2.30;;;5.50;99.90;;;;;;4048530;29;20288;-91
2021/03/05 10:45:04;;;;;;;6.40;2.17;;;5.60;99.90;;;;;;4027273;29;20179;-93
2021/03/05 10:47:10;;;;;;;4.73;1.97;;;5.60;99.90;;;;;;4044495;29;20662;-94
2021/03/05 10:49:19;;;;;;;5.57;2.00;;;5.60;99.90;;;;;;4046321;29;20249;-93
2021/03/05 10:51:20;;;;;;;6.97;2.40;;;5.80;99.90;;;;;;4044294;29;20622;-93
2021/03/05 10:53:20;;;;;;;4.37;1.90;;;5.90;99.90;;;;;;4028554;29;20730;-91
2021/03/05 10:55:21;;;;;;;7.10;2.33;;;5.70;99.90;;;;;;4027730;29;20167;-92
2021/03/05 10:57:22;;;;;;;8.10;2.23;;;5.70;99.90;;;;;;4032763;29;20217;-92
2021/03/05 10:59:24;;;;;;;4.50;2.13;;;5.80;99.90;;;;;;4032049;29;20214;-92
2021/03/05 11:01:24;;;;;;;5.97;2.20;;;5.60;99.90;;;;;;4043455;29;20263;-93